createdAt,value
2022-07-30T00:03:51.583Z,21.40
2022-07-30T00:07:53.192Z,21.30
2022-07-30T00:11:54.308Z,21.30
2022-07-30T00:15:55.445Z,21.20
2022-07-30T00:19:56.692Z,21.30
2022-07-30T00:24:01.660Z,21.10
2022-07-30T00:28:00.862Z,21.20
2022-07-30T00:32:02.106Z,21.40
2022-07-30T00:36:03.845Z,21.50
2022-07-30T00:40:07.306Z,21.50
2022-07-30T00:44:08.538Z,21.40
2022-07-30T00:48:11.181Z,21.40
2022-07-30T00:52:12.901Z,21.50
2022-07-30T00:56:14.044Z,21.50
2022-07-30T01:00:17.005Z,21.40
2022-07-30T01:04:18.240Z,21.00
2022-07-30T01:08:19.462Z,20.90
2022-07-30T01:12:23.918Z,21.00
2022-07-30T01:16:25.203Z,20.80
2022-07-30T01:20:36.150Z,20.70
2022-07-30T01:24:44.166Z,20.60
2022-07-30T01:28:51.943Z,20.70
2022-07-30T01:32:54.549Z,20.70
2022-07-30T01:36:58.788Z,20.60
2022-07-30T01:41:01.456Z,20.70
2022-07-30T01:45:04.469Z,20.70
2022-07-30T01:49:07.717Z,20.70
2022-07-30T01:53:17.056Z,20.80
2022-07-30T01:57:20.186Z,20.70
2022-07-30T02:01:22.862Z,20.50
2022-07-30T02:05:26.052Z,20.40
2022-07-30T02:09:31.088Z,20.40
2022-07-30T02:13:35.530Z,20.40
2022-07-30T02:17:44.979Z,20.20
2022-07-30T02:21:50.727Z,20.10
2022-07-30T02:25:51.104Z,20.20
2022-07-30T02:29:55.244Z,20.20
2022-07-30T02:34:00.376Z,20.10
2022-07-30T02:38:03.046Z,20.00
2022-07-30T02:42:07.027Z,19.80
2022-07-30T02:46:11.042Z,19.70
2022-07-30T02:50:14.903Z,19.60
2022-07-30T02:54:18.339Z,19.60
2022-07-30T02:58:22.658Z,19.60
2022-07-30T03:02:28.969Z,19.60
2022-07-30T03:06:28.750Z,19.60
2022-07-30T03:10:31.303Z,19.80
2022-07-30T03:14:32.541Z,19.70
2022-07-30T03:18:35.681Z,19.70
2022-07-30T03:22:40.693Z,19.70
2022-07-30T03:26:43.745Z,19.60
2022-07-30T03:30:45.251Z,19.50
2022-07-30T03:34:47.794Z,19.40
2022-07-30T03:38:49.809Z,19.30
2022-07-30T03:42:51.739Z,19.20
2022-07-30T03:46:54.476Z,19.10
2022-07-30T03:50:57.016Z,19.00
2022-07-30T03:54:59.034Z,19.00
2022-07-30T03:59:01.094Z,18.90
2022-07-30T04:03:02.318Z,18.90
2022-07-30T04:07:03.820Z,18.90
2022-07-30T04:11:05.165Z,18.90
2022-07-30T04:16:37.760Z,18.90
2022-07-30T04:19:27.059Z,18.90
2022-07-30T04:23:28.399Z,19.00
2022-07-30T04:27:31.245Z,18.90
2022-07-30T04:31:39.803Z,19.00
2022-07-30T04:35:51.216Z,19.00
2022-07-30T04:39:41.368Z,19.20
2022-07-30T04:43:42.566Z,19.30
2022-07-30T04:47:43.707Z,19.50
2022-07-30T04:51:45.969Z,19.80
2022-07-30T04:55:48.805Z,20.00
2022-07-30T04:59:50.099Z,20.10
2022-07-30T05:03:53.126Z,20.50
2022-07-30T05:07:55.843Z,21.00
2022-07-30T05:11:58.693Z,21.20
2022-07-30T05:15:59.863Z,21.30
2022-07-30T05:20:01.257Z,21.50
2022-07-30T05:24:04.166Z,21.70
2022-07-30T05:28:05.600Z,21.70
2022-07-30T05:32:07.382Z,21.60
2022-07-30T05:36:09.089Z,21.60
2022-07-30T05:40:11.835Z,21.90
2022-07-30T05:44:13.074Z,22.00
2022-07-30T05:48:14.304Z,22.10
2022-07-30T05:52:15.550Z,22.30
2022-07-30T05:56:16.797Z,22.40
2022-07-30T06:00:18.294Z,22.80
2022-07-30T06:04:19.661Z,23.00
2022-07-30T06:08:20.999Z,23.20
2022-07-30T06:12:22.224Z,23.10
2022-07-30T06:16:23.489Z,23.20
2022-07-30T06:20:24.790Z,23.60
2022-07-30T06:24:26.135Z,23.70
2022-07-30T06:28:38.419Z,24.00
2022-07-30T06:32:33.486Z,24.00
2022-07-30T06:36:34.620Z,24.10
2022-07-30T06:40:35.960Z,23.80
2022-07-30T06:44:37.180Z,23.30
2022-07-30T06:48:38.419Z,22.90
2022-07-30T06:52:39.649Z,23.00
2022-07-30T06:56:40.875Z,23.10
2022-07-30T07:00:43.926Z,23.10
2022-07-30T07:04:45.155Z,23.30
2022-07-30T07:08:46.457Z,23.50
2022-07-30T07:12:47.766Z,23.80
2022-07-30T07:16:49.361Z,23.80
2022-07-30T07:20:50.521Z,23.80
2022-07-30T07:24:51.741Z,23.90
2022-07-30T07:28:52.982Z,23.80
2022-07-30T07:32:54.304Z,23.60
2022-07-30T07:36:55.540Z,23.90
2022-07-30T07:40:56.973Z,24.20
2022-07-30T07:44:58.114Z,24.40
2022-07-30T07:48:59.398Z,24.50
2022-07-30T07:53:01.180Z,24.30
2022-07-30T07:57:04.890Z,24.50
2022-07-30T08:01:06.926Z,24.50
2022-07-30T08:05:11.772Z,24.50
2022-07-30T08:09:12.995Z,24.80
2022-07-30T08:13:47.950Z,24.40
2022-07-30T08:17:19.217Z,24.10
2022-07-30T08:21:22.189Z,23.90
2022-07-30T08:25:24.487Z,24.20
2022-07-30T08:29:25.772Z,24.10
2022-07-30T08:33:27.433Z,23.80
2022-07-30T08:37:29.183Z,24.30
2022-07-30T08:41:30.789Z,25.20
2022-07-30T08:45:34.667Z,26.10
2022-07-30T08:49:37.255Z,26.60
2022-07-30T08:53:39.491Z,26.90
2022-07-30T08:57:41.844Z,27.50
2022-07-30T09:01:43.384Z,27.90
2022-07-30T09:05:45.802Z,28.30
2022-07-30T09:09:47.039Z,28.80
2022-07-30T09:13:50.184Z,29.20
2022-07-30T09:17:57.573Z,28.90
2022-07-30T09:22:01.137Z,28.70
2022-07-30T09:26:02.374Z,29.70
2022-07-30T09:30:04.193Z,30.10
2022-07-30T09:34:09.169Z,29.30
2022-07-30T09:38:11.105Z,28.70
2022-07-30T09:42:25.033Z,28.10
2022-07-30T09:46:46.610Z,29.00
2022-07-30T09:50:50.227Z,29.50
2022-07-30T09:54:52.969Z,29.70
2022-07-30T09:58:56.553Z,29.60
2022-07-30T10:03:12.396Z,30.00
2022-07-30T10:07:09.355Z,30.50
2022-07-30T10:11:15.716Z,30.00
2022-07-30T10:15:20.134Z,29.40
2022-07-30T10:19:40.058Z,29.10
2022-07-30T10:23:27.371Z,28.70
2022-07-30T10:27:29.321Z,28.40
2022-07-30T10:31:49.332Z,28.40
2022-07-30T10:35:38.319Z,28.20
2022-07-30T10:39:47.166Z,28.00
2022-07-30T10:44:10.742Z,27.70
2022-07-30T10:48:13.757Z,28.60
2022-07-30T10:52:20.197Z,29.40
2022-07-30T10:56:25.863Z,29.70
2022-07-30T11:00:30.343Z,29.70
2022-07-30T11:04:31.702Z,29.20
2022-07-30T11:08:36.653Z,29.70
2022-07-30T11:12:46.631Z,30.40
2022-07-30T11:16:53.592Z,31.00
2022-07-30T11:21:16.528Z,31.10
2022-07-30T11:25:50.600Z,30.90
2022-07-30T11:29:51.138Z,31.00
2022-07-30T11:33:43.424Z,30.90
2022-07-30T11:38:08.846Z,31.80
2022-07-30T11:42:31.574Z,31.60
2022-07-30T11:46:33.811Z,31.80
2022-07-30T11:50:37.563Z,32.00
2022-07-30T11:54:53.517Z,31.60
2022-07-30T11:59:05.927Z,31.50
2022-07-30T12:03:12.695Z,31.90
2022-07-30T12:07:15.897Z,31.20
2022-07-30T12:11:17.383Z,31.10
2022-07-30T12:15:36.893Z,31.70
2022-07-30T12:19:47.366Z,31.40
2022-07-30T12:23:57.444Z,31.40
2022-07-30T12:27:58.982Z,31.10
2022-07-30T12:32:00.781Z,31.40
2022-07-30T12:36:02.234Z,31.40
2022-07-30T12:40:15.032Z,31.80
2022-07-30T12:44:38.811Z,31.90
2022-07-30T12:48:51.918Z,32.70
2022-07-30T12:52:55.314Z,32.90
2022-07-30T12:57:03.390Z,32.60
2022-07-30T13:01:06.326Z,32.00
2022-07-30T13:05:10.974Z,32.20
2022-07-30T13:09:22.097Z,31.80
2022-07-30T13:13:23.307Z,32.30
2022-07-30T13:17:24.421Z,31.60
2022-07-30T13:21:25.636Z,31.30
2022-07-30T13:25:27.338Z,31.90
2022-07-30T13:29:30.479Z,32.10
2022-07-30T13:33:31.599Z,32.30
2022-07-30T13:37:38.614Z,32.20
2022-07-30T13:41:36.705Z,32.00
2022-07-30T13:45:38.594Z,31.70
2022-07-30T13:49:41.749Z,31.30
2022-07-30T13:53:42.982Z,30.90
2022-07-30T13:57:45.063Z,31.00
2022-07-30T14:01:46.490Z,30.90
2022-07-30T14:05:47.960Z,30.90
2022-07-30T14:09:54.061Z,30.60
2022-07-30T14:13:52.307Z,30.60
2022-07-30T14:17:56.634Z,30.90
2022-07-30T14:21:57.147Z,30.90
2022-07-30T14:25:58.336Z,30.80
2022-07-30T14:30:00.075Z,30.60
2022-07-30T14:34:01.903Z,30.70
2022-07-30T14:42:10.592Z,30.50
2022-07-30T14:46:11.987Z,30.60
2022-07-30T14:50:13.203Z,30.50
2022-07-30T14:54:14.412Z,30.50
2022-07-30T14:58:15.660Z,30.40
2022-07-30T15:02:16.881Z,30.40
2022-07-30T15:06:17.999Z,30.20
2022-07-30T15:10:19.234Z,30.30
2022-07-30T15:14:20.663Z,30.60
2022-07-30T15:18:22.571Z,30.70
2022-07-30T15:22:23.706Z,30.50
2022-07-30T15:26:24.923Z,30.70
2022-07-30T15:30:26.359Z,30.70
2022-07-30T15:34:30.276Z,30.60
2022-07-30T15:38:31.913Z,30.50
2022-07-30T15:42:33.241Z,30.20
2022-07-30T15:46:35.523Z,30.00
2022-07-30T15:50:36.811Z,29.90
2022-07-30T15:54:38.699Z,29.70
2022-07-30T15:58:43.515Z,29.50
2022-07-30T16:02:43.717Z,29.50
2022-07-30T16:06:44.958Z,29.40
2022-07-30T16:10:46.703Z,29.80
2022-07-30T16:14:47.958Z,30.10
2022-07-30T16:18:49.273Z,29.80
2022-07-30T16:22:50.503Z,29.70
2022-07-30T16:26:51.707Z,29.60
2022-07-30T16:30:53.269Z,29.40
2022-07-30T16:34:54.465Z,29.30
2022-07-30T16:38:55.813Z,29.20
2022-07-30T16:42:57.219Z,29.20
2022-07-30T16:47:00.120Z,29.00
2022-07-30T16:51:01.638Z,29.30
2022-07-30T16:55:03.150Z,29.40
2022-07-30T16:59:04.533Z,29.30
2022-07-30T17:03:05.771Z,29.30
2022-07-30T17:07:07.006Z,29.50
2022-07-30T17:11:08.803Z,29.30
2022-07-30T17:15:11.379Z,29.10
2022-07-30T17:19:12.603Z,29.00
2022-07-30T17:23:13.830Z,29.00
2022-07-30T17:27:15.059Z,28.70
2022-07-30T17:31:16.290Z,28.60
2022-07-30T17:35:17.824Z,28.50
2022-07-30T17:40:27.625Z,28.50
2022-07-30T17:43:24.163Z,28.50
2022-07-30T17:47:25.374Z,28.50
2022-07-30T17:51:27.339Z,28.40
2022-07-30T17:55:28.642Z,28.30
2022-07-30T17:59:29.761Z,28.20
2022-07-30T18:03:31.789Z,28.10
2022-07-30T18:07:32.922Z,28.10
2022-07-30T18:11:34.138Z,28.10
2022-07-30T18:15:35.929Z,28.20
2022-07-30T18:19:37.364Z,28.00
2022-07-30T18:23:38.480Z,28.00
2022-07-30T18:27:39.605Z,28.10
2022-07-30T18:31:40.823Z,28.00
2022-07-30T18:35:42.647Z,28.00
2022-07-30T18:39:43.786Z,28.10
2022-07-30T18:43:48.111Z,28.10
2022-07-30T18:47:48.540Z,28.00
2022-07-30T18:51:50.037Z,28.00
2022-07-30T18:55:51.472Z,28.00
2022-07-30T18:59:52.978Z,28.00
2022-07-30T19:03:54.113Z,27.80
2022-07-30T19:07:57.266Z,27.80
2022-07-30T19:11:58.488Z,27.70
2022-07-30T19:15:59.697Z,27.50
2022-07-30T19:20:01.648Z,27.30
2022-07-30T19:24:03.811Z,27.30
2022-07-30T19:28:05.083Z,27.20
2022-07-30T19:32:06.819Z,27.00
2022-07-30T19:36:09.234Z,26.80
2022-07-30T19:40:12.711Z,26.50
2022-07-30T19:44:17.596Z,26.50
2022-07-30T19:48:28.846Z,26.50
2022-07-30T19:52:25.483Z,26.40
2022-07-30T19:56:27.612Z,26.20
2022-07-30T20:00:28.841Z,25.90
2022-07-30T20:04:30.272Z,25.70
2022-07-30T20:08:31.487Z,25.50
2022-07-30T20:12:32.616Z,25.20
2022-07-30T20:16:34.939Z,25.00
2022-07-30T20:20:36.187Z,25.00
2022-07-30T20:24:39.307Z,25.10
2022-07-30T20:28:46.252Z,24.90
2022-07-30T20:32:49.216Z,24.80
2022-07-30T20:36:50.583Z,24.80
2022-07-30T20:40:52.603Z,24.90
2022-07-30T20:44:55.735Z,25.10
2022-07-30T20:48:57.073Z,25.20
2022-07-30T20:52:58.762Z,25.30
2022-07-30T20:57:00.005Z,25.40
2022-07-30T21:01:01.809Z,25.30
2022-07-30T21:05:05.617Z,24.90
2022-07-30T21:09:07.854Z,25.10
2022-07-30T21:13:11.005Z,25.20
2022-07-30T21:17:12.406Z,24.80
2022-07-30T21:21:13.634Z,24.90
2022-07-30T21:25:15.055Z,24.10
2022-07-30T21:29:18.092Z,24.00
2022-07-30T21:33:19.396Z,23.90
2022-07-30T21:37:21.010Z,24.10
2022-07-30T21:41:40.153Z,24.20
2022-07-30T21:45:28.339Z,24.20
2022-07-30T21:49:28.999Z,24.40
2022-07-30T21:53:44.943Z,24.40
2022-07-30T21:57:36.500Z,24.40
2022-07-30T22:01:38.757Z,24.50
2022-07-30T22:05:41.340Z,24.50
2022-07-30T22:09:43.450Z,24.50
2022-07-30T22:13:53.667Z,24.60
2022-07-30T22:18:00.813Z,24.60
2022-07-30T22:21:51.228Z,24.20
2022-07-30T22:25:53.287Z,23.60
2022-07-30T22:29:56.315Z,23.10
2022-07-30T22:33:57.505Z,22.80
2022-07-30T22:37:59.233Z,22.60
2022-07-30T22:42:01.230Z,22.50
2022-07-30T22:46:02.910Z,22.30
2022-07-30T22:50:08.171Z,22.10
2022-07-30T22:54:13.049Z,22.00
2022-07-30T22:58:12.782Z,21.90
2022-07-30T23:02:14.698Z,21.80
2022-07-30T23:06:17.730Z,21.70
2022-07-30T23:10:21.266Z,21.70
2022-07-30T23:14:23.877Z,21.70
2022-07-30T23:18:26.901Z,21.70
2022-07-30T23:22:28.023Z,21.60
2022-07-30T23:26:29.151Z,21.40
2022-07-30T23:30:33.823Z,21.30
2022-07-30T23:34:33.454Z,21.20
2022-07-30T23:38:36.401Z,21.20
2022-07-30T23:42:37.619Z,21.20
2022-07-30T23:46:40.186Z,21.20
2022-07-30T23:50:41.386Z,21.10
2022-07-30T23:54:42.516Z,21.10
2022-07-30T23:58:45.650Z,21.20
